sensor_id;sensor_type;location;lat;lon;timestamp;temperature;humidity
814;DHT22;389;48.710;9.392;2023-06-14T00:00:58;14.20;65.70
814;DHT22;389;48.710;9.392;2023-06-14T00:03:24;14.10;66.10
814;DHT22;389;48.710;9.392;2023-06-14T00:05:50;14.00;66.40
814;DHT22;389;48.710;9.392;2023-06-14T00:08:15;14.00;66.60
814;DHT22;389;48.710;9.392;2023-06-14T00:10:41;13.90;66.80
814;DHT22;389;48.710;9.392;2023-06-14T00:13:08;13.90;67.20
814;DHT22;389;48.710;9.392;2023-06-14T00:15:34;13.80;67.50
814;DHT22;389;48.710;9.392;2023-06-14T00:18:00;13.80;67.90
814;DHT22;389;48.710;9.392;2023-06-14T00:20:28;13.70;68.00
814;DHT22;389;48.710;9.392;2023-06-14T00:22:54;13.70;68.20
814;DHT22;389;48.710;9.392;2023-06-14T00:25:23;13.70;68.40
814;DHT22;389;48.710;9.392;2023-06-14T00:27:51;13.60;68.60
814;DHT22;389;48.710;9.392;2023-06-14T00:30:16;13.60;69.60
814;DHT22;389;48.710;9.392;2023-06-14T00:32:42;13.50;69.60
814;DHT22;389;48.710;9.392;2023-06-14T00:35:08;13.50;69.30
814;DHT22;389;48.710;9.392;2023-06-14T00:37:35;13.40;69.60
814;DHT22;389;48.710;9.392;2023-06-14T00:40:00;13.40;70.10
814;DHT22;389;48.710;9.392;2023-06-14T00:42:27;13.40;70.40
814;DHT22;389;48.710;9.392;2023-06-14T00:44:53;13.40;70.80
814;DHT22;389;48.710;9.392;2023-06-14T00:47:19;13.30;71.00
814;DHT22;389;48.710;9.392;2023-06-14T00:49:46;13.20;71.40
814;DHT22;389;48.710;9.392;2023-06-14T00:52:13;13.20;71.70
814;DHT22;389;48.710;9.392;2023-06-14T00:54:40;13.20;72.10
814;DHT22;389;48.710;9.392;2023-06-14T00:57:07;13.10;72.30
814;DHT22;389;48.710;9.392;2023-06-14T00:59:33;13.10;72.80
814;DHT22;389;48.710;9.392;2023-06-14T01:01:59;13.00;73.10
814;DHT22;389;48.710;9.392;2023-06-14T01:04:25;13.10;73.60
814;DHT22;389;48.710;9.392;2023-06-14T01:07:04;13.00;73.90
814;DHT22;389;48.710;9.392;2023-06-14T01:10:46;12.90;74.10
814;DHT22;389;48.710;9.392;2023-06-14T01:12:59;12.80;74.30
814;DHT22;389;48.710;9.392;2023-06-14T01:15:30;12.80;74.90
814;DHT22;389;48.710;9.392;2023-06-14T01:17:56;12.70;75.20
814;DHT22;389;48.710;9.392;2023-06-14T01:20:30;12.70;75.70
814;DHT22;389;48.710;9.392;2023-06-14T01:22:57;12.60;76.00
814;DHT22;389;48.710;9.392;2023-06-14T01:25:23;12.60;76.50
814;DHT22;389;48.710;9.392;2023-06-14T01:30:23;12.50;77.30
814;DHT22;389;48.710;9.392;2023-06-14T01:32:51;12.50;77.90
814;DHT22;389;48.710;9.392;2023-06-14T01:35:17;12.50;78.30
814;DHT22;389;48.710;9.392;2023-06-14T01:37:43;12.40;78.40
814;DHT22;389;48.710;9.392;2023-06-14T01:40:12;12.40;78.60
814;DHT22;389;48.710;9.392;2023-06-14T01:42:39;12.40;78.70
814;DHT22;389;48.710;9.392;2023-06-14T01:45:06;12.30;78.90
814;DHT22;389;48.710;9.392;2023-06-14T01:47:33;12.30;79.30
814;DHT22;389;48.710;9.392;2023-06-14T01:49:59;12.30;79.60
814;DHT22;389;48.710;9.392;2023-06-14T01:52:24;12.20;79.70
814;DHT22;389;48.710;9.392;2023-06-14T01:54:50;12.20;80.10
814;DHT22;389;48.710;9.392;2023-06-14T01:57:16;12.20;80.60
814;DHT22;389;48.710;9.392;2023-06-14T01:59:42;12.10;81.00
814;DHT22;389;48.710;9.392;2023-06-14T02:02:07;12.10;81.40
814;DHT22;389;48.710;9.392;2023-06-14T02:04:33;12.00;81.60
814;DHT22;389;48.710;9.392;2023-06-14T02:06:59;12.00;82.00
814;DHT22;389;48.710;9.392;2023-06-14T02:09:24;12.00;82.40
814;DHT22;389;48.710;9.392;2023-06-14T02:11:50;12.00;82.80
814;DHT22;389;48.710;9.392;2023-06-14T02:14:16;12.00;83.30
814;DHT22;389;48.710;9.392;2023-06-14T02:16:43;11.90;83.50
814;DHT22;389;48.710;9.392;2023-06-14T02:19:17;11.90;83.80
814;DHT22;389;48.710;9.392;2023-06-14T02:21:43;11.90;84.20
814;DHT22;389;48.710;9.392;2023-06-14T02:24:09;11.90;84.40
814;DHT22;389;48.710;9.392;2023-06-14T02:26:35;11.80;84.60
814;DHT22;389;48.710;9.392;2023-06-14T02:29:03;11.90;85.40
814;DHT22;389;48.710;9.392;2023-06-14T02:31:29;11.80;85.80
814;DHT22;389;48.710;9.392;2023-06-14T02:33:55;11.80;86.20
814;DHT22;389;48.710;9.392;2023-06-14T02:36:20;11.70;86.60
814;DHT22;389;48.710;9.392;2023-06-14T02:38:46;11.70;86.90
814;DHT22;389;48.710;9.392;2023-06-14T02:41:12;11.70;87.30
814;DHT22;389;48.710;9.392;2023-06-14T02:43:37;11.80;87.80
814;DHT22;389;48.710;9.392;2023-06-14T02:46:03;11.70;88.00
814;DHT22;389;48.710;9.392;2023-06-14T02:48:29;11.60;88.20
814;DHT22;389;48.710;9.392;2023-06-14T02:50:55;11.60;88.50
814;DHT22;389;48.710;9.392;2023-06-14T02:53:21;11.60;88.80
814;DHT22;389;48.710;9.392;2023-06-14T02:55:47;11.70;89.10
814;DHT22;389;48.710;9.392;2023-06-14T02:58:13;11.60;89.20
814;DHT22;389;48.710;9.392;2023-06-14T03:00:39;11.60;89.40
814;DHT22;389;48.710;9.392;2023-06-14T03:03:07;11.60;89.60
814;DHT22;389;48.710;9.392;2023-06-14T03:05:44;11.50;89.70
814;DHT22;389;48.710;9.392;2023-06-14T03:08:15;11.50;89.80
814;DHT22;389;48.710;9.392;2023-06-14T03:10:43;11.50;89.90
814;DHT22;389;48.710;9.392;2023-06-14T03:13:09;11.50;90.00
814;DHT22;389;48.710;9.392;2023-06-14T03:15:36;11.50;90.00
814;DHT22;389;48.710;9.392;2023-06-14T03:18:01;11.40;89.90
814;DHT22;389;48.710;9.392;2023-06-14T03:20:29;11.40;90.00
814;DHT22;389;48.710;9.392;2023-06-14T03:22:55;11.40;90.10
814;DHT22;389;48.710;9.392;2023-06-14T03:25:20;11.40;90.20
814;DHT22;389;48.710;9.392;2023-06-14T03:27:47;11.30;90.20
814;DHT22;389;48.710;9.392;2023-06-14T03:30:13;11.30;90.20
814;DHT22;389;48.710;9.392;2023-06-14T03:32:38;11.30;90.20
814;DHT22;389;48.710;9.392;2023-06-14T03:35:05;11.30;90.30
814;DHT22;389;48.710;9.392;2023-06-14T03:37:30;11.30;90.40
814;DHT22;389;48.710;9.392;2023-06-14T03:39:56;11.30;90.60
814;DHT22;389;48.710;9.392;2023-06-14T03:42:22;11.30;90.80
814;DHT22;389;48.710;9.392;2023-06-14T03:44:47;11.20;91.10
814;DHT22;389;48.710;9.392;2023-06-14T03:47:13;11.30;91.40
814;DHT22;389;48.710;9.392;2023-06-14T03:49:38;11.20;91.60
814;DHT22;389;48.710;9.392;2023-06-14T03:52:04;11.20;91.80
814;DHT22;389;48.710;9.392;2023-06-14T03:54:30;11.30;92.10
814;DHT22;389;48.710;9.392;2023-06-14T03:56:58;11.30;92.30
814;DHT22;389;48.710;9.392;2023-06-14T03:59:24;11.30;92.40
814;DHT22;389;48.710;9.392;2023-06-14T04:01:51;11.40;92.50
814;DHT22;389;48.710;9.392;2023-06-14T04:04:16;11.40;92.50
814;DHT22;389;48.710;9.392;2023-06-14T04:06:42;11.40;92.70
814;DHT22;389;48.710;9.392;2023-06-14T04:09:08;11.50;92.80
814;DHT22;389;48.710;9.392;2023-06-14T04:11:33;11.60;92.90
814;DHT22;389;48.710;9.392;2023-06-14T04:13:59;11.60;93.00
814;DHT22;389;48.710;9.392;2023-06-14T04:16:25;11.70;93.00
814;DHT22;389;48.710;9.392;2023-06-14T04:18:51;11.80;93.10
814;DHT22;389;48.710;9.392;2023-06-14T04:21:18;11.80;93.20
814;DHT22;389;48.710;9.392;2023-06-14T04:23:43;12.00;93.30
814;DHT22;389;48.710;9.392;2023-06-14T04:26:09;12.00;93.30
814;DHT22;389;48.710;9.392;2023-06-14T04:28:35;12.10;93.30
814;DHT22;389;48.710;9.392;2023-06-14T04:31:06;12.10;93.20
814;DHT22;389;48.710;9.392;2023-06-14T04:33:35;12.20;93.20
814;DHT22;389;48.710;9.392;2023-06-14T04:36:11;12.30;93.10
814;DHT22;389;48.710;9.392;2023-06-14T04:38:42;12.40;93.00
814;DHT22;389;48.710;9.392;2023-06-14T04:41:10;12.60;92.90
814;DHT22;389;48.710;9.392;2023-06-14T04:43:37;12.70;92.70
814;DHT22;389;48.710;9.392;2023-06-14T04:46:04;13.10;92.90
814;DHT22;389;48.710;9.392;2023-06-14T04:48:31;13.70;92.50
814;DHT22;389;48.710;9.392;2023-06-14T04:50:57;14.40;91.90
814;DHT22;389;48.710;9.392;2023-06-14T04:53:22;15.10;90.10
814;DHT22;389;48.710;9.392;2023-06-14T04:55:48;15.90;87.30
814;DHT22;389;48.710;9.392;2023-06-14T04:58:15;16.70;85.00
814;DHT22;389;48.710;9.392;2023-06-14T05:00:42;17.40;81.70
814;DHT22;389;48.710;9.392;2023-06-14T05:03:09;18.20;79.30
814;DHT22;389;48.710;9.392;2023-06-14T05:05:34;18.80;76.30
814;DHT22;389;48.710;9.392;2023-06-14T05:08:00;19.40;72.80
814;DHT22;389;48.710;9.392;2023-06-14T05:10:26;20.00;71.10
814;DHT22;389;48.710;9.392;2023-06-14T05:12:52;20.60;68.60
814;DHT22;389;48.710;9.392;2023-06-14T05:15:18;21.00;65.70
814;DHT22;389;48.710;9.392;2023-06-14T05:17:45;21.40;65.30
814;DHT22;389;48.710;9.392;2023-06-14T05:20:13;21.70;63.80
814;DHT22;389;48.710;9.392;2023-06-14T05:22:39;22.10;63.50
814;DHT22;389;48.710;9.392;2023-06-14T05:25:04;22.30;62.30
814;DHT22;389;48.710;9.392;2023-06-14T05:27:30;22.50;61.60
814;DHT22;389;48.710;9.392;2023-06-14T05:29:56;22.70;61.20
814;DHT22;389;48.710;9.392;2023-06-14T05:32:24;22.90;60.40
814;DHT22;389;48.710;9.392;2023-06-14T05:37:17;23.00;59.70
814;DHT22;389;48.710;9.392;2023-06-14T05:39:43;23.10;59.10
814;DHT22;389;48.710;9.392;2023-06-14T05:42:08;23.20;58.70
814;DHT22;389;48.710;9.392;2023-06-14T05:44:34;23.30;58.60
814;DHT22;389;48.710;9.392;2023-06-14T05:46:59;23.30;58.00
814;DHT22;389;48.710;9.392;2023-06-14T05:49:25;23.40;57.10
814;DHT22;389;48.710;9.392;2023-06-14T05:51:50;23.50;57.10
814;DHT22;389;48.710;9.392;2023-06-14T05:54:16;23.70;57.00
814;DHT22;389;48.710;9.392;2023-06-14T05:56:42;23.80;57.10
814;DHT22;389;48.710;9.392;2023-06-14T05:59:07;24.00;57.10
814;DHT22;389;48.710;9.392;2023-06-14T06:01:33;24.10;56.60
814;DHT22;389;48.710;9.392;2023-06-14T06:04:02;24.30;56.30
814;DHT22;389;48.710;9.392;2023-06-14T06:06:27;24.50;56.00
814;DHT22;389;48.710;9.392;2023-06-14T06:08:53;24.60;56.00
814;DHT22;389;48.710;9.392;2023-06-14T06:11:19;24.70;55.70
814;DHT22;389;48.710;9.392;2023-06-14T06:13:45;24.70;55.00
814;DHT22;389;48.710;9.392;2023-06-14T06:16:11;24.80;54.70
814;DHT22;389;48.710;9.392;2023-06-14T06:18:36;25.00;54.70
814;DHT22;389;48.710;9.392;2023-06-14T06:21:03;25.10;54.30
814;DHT22;389;48.710;9.392;2023-06-14T06:23:29;25.30;53.80
814;DHT22;389;48.710;9.392;2023-06-14T06:25:55;25.30;53.70
814;DHT22;389;48.710;9.392;2023-06-14T06:28:20;25.50;53.50
814;DHT22;389;48.710;9.392;2023-06-14T06:30:46;25.60;53.30
814;DHT22;389;48.710;9.392;2023-06-14T06:33:12;25.80;53.00
814;DHT22;389;48.710;9.392;2023-06-14T06:35:38;26.00;52.60
814;DHT22;389;48.710;9.392;2023-06-14T06:38:03;26.30;52.40
814;DHT22;389;48.710;9.392;2023-06-14T06:40:29;26.50;52.00
814;DHT22;389;48.710;9.392;2023-06-14T06:42:55;26.70;52.10
814;DHT22;389;48.710;9.392;2023-06-14T06:45:20;26.90;51.20
814;DHT22;389;48.710;9.392;2023-06-14T06:47:46;27.20;51.00
814;DHT22;389;48.710;9.392;2023-06-14T06:50:12;27.30;50.70
814;DHT22;389;48.710;9.392;2023-06-14T06:52:37;27.40;50.50
814;DHT22;389;48.710;9.392;2023-06-14T06:55:03;27.50;50.40
814;DHT22;389;48.710;9.392;2023-06-14T06:57:28;27.60;50.00
814;DHT22;389;48.710;9.392;2023-06-14T06:59:54;27.70;49.80
814;DHT22;389;48.710;9.392;2023-06-14T07:02:21;27.90;49.60
814;DHT22;389;48.710;9.392;2023-06-14T07:04:46;28.10;49.00
814;DHT22;389;48.710;9.392;2023-06-14T07:07:12;28.30;49.00
814;DHT22;389;48.710;9.392;2023-06-14T07:09:41;28.30;49.30
814;DHT22;389;48.710;9.392;2023-06-14T07:12:07;28.40;49.30
814;DHT22;389;48.710;9.392;2023-06-14T07:14:33;28.30;48.90
814;DHT22;389;48.710;9.392;2023-06-14T07:16:59;28.10;48.80
814;DHT22;389;48.710;9.392;2023-06-14T07:19:24;27.70;49.40
814;DHT22;389;48.710;9.392;2023-06-14T07:21:50;27.40;50.10
814;DHT22;389;48.710;9.392;2023-06-14T07:24:15;27.10;50.30
814;DHT22;389;48.710;9.392;2023-06-14T07:26:41;26.70;50.10
814;DHT22;389;48.710;9.392;2023-06-14T07:29:07;26.40;51.10
814;DHT22;389;48.710;9.392;2023-06-14T07:31:32;26.10;50.80
814;DHT22;389;48.710;9.392;2023-06-14T07:33:58;25.50;50.80
814;DHT22;389;48.710;9.392;2023-06-14T07:36:23;25.20;50.60
814;DHT22;389;48.710;9.392;2023-06-14T07:38:49;25.00;51.10
814;DHT22;389;48.710;9.392;2023-06-14T07:41:15;24.80;51.30
814;DHT22;389;48.710;9.392;2023-06-14T07:43:41;24.60;51.50
814;DHT22;389;48.710;9.392;2023-06-14T07:46:06;24.50;51.70
814;DHT22;389;48.710;9.392;2023-06-14T07:48:33;24.60;51.90
814;DHT22;389;48.710;9.392;2023-06-14T07:50:59;24.60;51.90
814;DHT22;389;48.710;9.392;2023-06-14T07:53:26;24.50;51.90
814;DHT22;389;48.710;9.392;2023-06-14T07:55:52;24.50;52.00
814;DHT22;389;48.710;9.392;2023-06-14T07:58:17;24.60;52.40
814;DHT22;389;48.710;9.392;2023-06-14T08:00:43;24.70;52.10
814;DHT22;389;48.710;9.392;2023-06-14T08:03:08;24.60;51.60
814;DHT22;389;48.710;9.392;2023-06-14T08:05:35;24.50;51.40
814;DHT22;389;48.710;9.392;2023-06-14T08:08:00;24.40;51.70
814;DHT22;389;48.710;9.392;2023-06-14T08:10:26;24.30;51.80
814;DHT22;389;48.710;9.392;2023-06-14T08:12:51;24.30;52.40
814;DHT22;389;48.710;9.392;2023-06-14T08:15:17;24.30;51.80
814;DHT22;389;48.710;9.392;2023-06-14T08:17:44;24.30;51.50
814;DHT22;389;48.710;9.392;2023-06-14T08:20:10;24.30;51.30
814;DHT22;389;48.710;9.392;2023-06-14T08:22:36;24.40;51.70
814;DHT22;389;48.710;9.392;2023-06-14T08:25:02;24.40;51.70
814;DHT22;389;48.710;9.392;2023-06-14T08:27:29;24.40;51.40
814;DHT22;389;48.710;9.392;2023-06-14T08:29:55;24.40;51.30
814;DHT22;389;48.710;9.392;2023-06-14T08:32:21;24.40;50.60
814;DHT22;389;48.710;9.392;2023-06-14T08:34:47;24.50;51.10
814;DHT22;389;48.710;9.392;2023-06-14T08:37:12;24.40;50.70
814;DHT22;389;48.710;9.392;2023-06-14T08:39:38;24.40;50.60
814;DHT22;389;48.710;9.392;2023-06-14T08:42:05;24.30;50.70
814;DHT22;389;48.710;9.392;2023-06-14T08:44:33;24.20;50.70
814;DHT22;389;48.710;9.392;2023-06-14T08:47:02;24.10;50.90
814;DHT22;389;48.710;9.392;2023-06-14T08:49:31;24.00;51.00
814;DHT22;389;48.710;9.392;2023-06-14T08:51:59;23.90;50.60
814;DHT22;389;48.710;9.392;2023-06-14T08:54:28;23.90;51.20
814;DHT22;389;48.710;9.392;2023-06-14T08:56:58;24.00;51.00
814;DHT22;389;48.710;9.392;2023-06-14T08:59:28;24.00;50.30
814;DHT22;389;48.710;9.392;2023-06-14T09:01:54;24.00;50.70
814;DHT22;389;48.710;9.392;2023-06-14T09:04:23;24.10;50.70
814;DHT22;389;48.710;9.392;2023-06-14T09:06:55;24.10;50.60
814;DHT22;389;48.710;9.392;2023-06-14T09:09:22;24.20;50.30
814;DHT22;389;48.710;9.392;2023-06-14T09:11:50;24.20;50.00
814;DHT22;389;48.710;9.392;2023-06-14T09:14:15;24.30;50.40
814;DHT22;389;48.710;9.392;2023-06-14T09:16:41;24.50;50.20
814;DHT22;389;48.710;9.392;2023-06-14T09:19:06;24.40;50.00
814;DHT22;389;48.710;9.392;2023-06-14T09:21:34;24.40;47.70
814;DHT22;389;48.710;9.392;2023-06-14T09:24:01;24.40;47.70
814;DHT22;389;48.710;9.392;2023-06-14T09:26:28;24.50;48.50
814;DHT22;389;48.710;9.392;2023-06-14T09:28:54;24.60;48.90
814;DHT22;389;48.710;9.392;2023-06-14T09:31:20;24.70;48.90
814;DHT22;389;48.710;9.392;2023-06-14T09:33:49;24.80;48.70
814;DHT22;389;48.710;9.392;2023-06-14T09:36:33;24.90;48.10
814;DHT22;389;48.710;9.392;2023-06-14T09:39:03;25.10;47.50
814;DHT22;389;48.710;9.392;2023-06-14T09:41:41;25.20;47.50
814;DHT22;389;48.710;9.392;2023-06-14T09:44:09;25.20;47.10
814;DHT22;389;48.710;9.392;2023-06-14T09:46:36;25.30;46.90
814;DHT22;389;48.710;9.392;2023-06-14T09:49:03;25.50;45.70
814;DHT22;389;48.710;9.392;2023-06-14T09:51:29;25.50;45.20
814;DHT22;389;48.710;9.392;2023-06-14T09:54:02;25.70;45.60
814;DHT22;389;48.710;9.392;2023-06-14T09:56:32;25.90;45.90
814;DHT22;389;48.710;9.392;2023-06-14T09:59:00;26.10;45.40
814;DHT22;389;48.710;9.392;2023-06-14T10:01:30;26.30;44.90
814;DHT22;389;48.710;9.392;2023-06-14T10:04:06;26.50;43.70
814;DHT22;389;48.710;9.392;2023-06-14T10:06:36;26.60;43.60
814;DHT22;389;48.710;9.392;2023-06-14T10:09:04;26.70;43.30
814;DHT22;389;48.710;9.392;2023-06-14T10:11:31;26.90;43.40
814;DHT22;389;48.710;9.392;2023-06-14T10:13:58;27.00;43.50
814;DHT22;389;48.710;9.392;2023-06-14T10:19:25;27.00;44.60
814;DHT22;389;48.710;9.392;2023-06-14T10:22:09;26.80;45.10
814;DHT22;389;48.710;9.392;2023-06-14T10:24:43;26.50;44.80
814;DHT22;389;48.710;9.392;2023-06-14T10:27:09;26.20;45.10
814;DHT22;389;48.710;9.392;2023-06-14T10:30:03;26.20;45.30
814;DHT22;389;48.710;9.392;2023-06-14T10:32:29;26.00;45.00
814;DHT22;389;48.710;9.392;2023-06-14T10:35:05;25.90;44.80
814;DHT22;389;48.710;9.392;2023-06-14T10:37:31;25.80;45.00
814;DHT22;389;48.710;9.392;2023-06-14T10:39:57;25.80;45.10
814;DHT22;389;48.710;9.392;2023-06-14T10:42:36;25.90;45.30
814;DHT22;389;48.710;9.392;2023-06-14T10:45:02;25.80;45.30
814;DHT22;389;48.710;9.392;2023-06-14T10:47:34;25.90;45.60
814;DHT22;389;48.710;9.392;2023-06-14T10:50:09;26.00;45.00
814;DHT22;389;48.710;9.392;2023-06-14T10:52:40;26.00;45.30
814;DHT22;389;48.710;9.392;2023-06-14T10:55:11;25.90;44.90
814;DHT22;389;48.710;9.392;2023-06-14T11:00:13;25.80;45.30
814;DHT22;389;48.710;9.392;2023-06-14T11:11:00;26.30;45.00
814;DHT22;389;48.710;9.392;2023-06-14T11:13:26;26.30;44.80
814;DHT22;389;48.710;9.392;2023-06-14T11:15:52;26.50;44.30
814;DHT22;389;48.710;9.392;2023-06-14T11:18:23;26.50;43.70
814;DHT22;389;48.710;9.392;2023-06-14T11:20:53;26.70;44.20
814;DHT22;389;48.710;9.392;2023-06-14T11:23:19;26.70;43.50
814;DHT22;389;48.710;9.392;2023-06-14T11:25:50;26.70;43.80
814;DHT22;389;48.710;9.392;2023-06-14T11:28:16;26.70;43.80
814;DHT22;389;48.710;9.392;2023-06-14T11:30:42;26.70;44.10
814;DHT22;389;48.710;9.392;2023-06-14T11:33:09;26.70;44.30
814;DHT22;389;48.710;9.392;2023-06-14T11:35:36;26.80;44.10
814;DHT22;389;48.710;9.392;2023-06-14T11:38:02;26.90;43.90
814;DHT22;389;48.710;9.392;2023-06-14T11:40:27;27.00;43.80
814;DHT22;389;48.710;9.392;2023-06-14T11:43:01;27.20;44.10
814;DHT22;389;48.710;9.392;2023-06-14T11:45:29;27.40;43.30
814;DHT22;389;48.710;9.392;2023-06-14T11:47:56;27.50;43.10
814;DHT22;389;48.710;9.392;2023-06-14T11:50:29;27.60;43.00
814;DHT22;389;48.710;9.392;2023-06-14T11:52:59;27.60;42.40
814;DHT22;389;48.710;9.392;2023-06-14T11:55:32;27.60;42.40
814;DHT22;389;48.710;9.392;2023-06-14T11:57:57;27.60;42.30
814;DHT22;389;48.710;9.392;2023-06-14T12:00:26;27.40;42.60
814;DHT22;389;48.710;9.392;2023-06-14T12:02:54;27.30;42.50
814;DHT22;389;48.710;9.392;2023-06-14T12:05:23;27.20;42.80
814;DHT22;389;48.710;9.392;2023-06-14T12:07:50;27.10;42.80
814;DHT22;389;48.710;9.392;2023-06-14T12:10:18;27.10;42.90
814;DHT22;389;48.710;9.392;2023-06-14T12:12:44;27.10;43.00
814;DHT22;389;48.710;9.392;2023-06-14T12:15:10;27.10;43.10
814;DHT22;389;48.710;9.392;2023-06-14T12:17:39;27.20;43.30
814;DHT22;389;48.710;9.392;2023-06-14T12:20:13;27.20;43.30
814;DHT22;389;48.710;9.392;2023-06-14T12:22:57;27.40;42.90
814;DHT22;389;48.710;9.392;2023-06-14T12:25:27;27.50;42.30
814;DHT22;389;48.710;9.392;2023-06-14T12:27:56;27.70;42.10
814;DHT22;389;48.710;9.392;2023-06-14T12:30:22;27.90;42.10
814;DHT22;389;48.710;9.392;2023-06-14T12:33:06;28.10;42.30
814;DHT22;389;48.710;9.392;2023-06-14T12:35:32;28.20;41.80
814;DHT22;389;48.710;9.392;2023-06-14T12:37:58;28.20;41.50
814;DHT22;389;48.710;9.392;2023-06-14T12:40:24;28.30;41.20
814;DHT22;389;48.710;9.392;2023-06-14T12:42:49;28.40;41.10
814;DHT22;389;48.710;9.392;2023-06-14T12:45:15;28.60;40.70
814;DHT22;389;48.710;9.392;2023-06-14T12:47:41;28.60;40.70
814;DHT22;389;48.710;9.392;2023-06-14T12:50:07;28.50;41.00
814;DHT22;389;48.710;9.392;2023-06-14T12:52:33;28.30;41.70
814;DHT22;389;48.710;9.392;2023-06-14T12:55:06;28.10;41.30
814;DHT22;389;48.710;9.392;2023-06-14T12:57:32;27.90;41.50
814;DHT22;389;48.710;9.392;2023-06-14T12:59:59;27.80;42.20
814;DHT22;389;48.710;9.392;2023-06-14T13:02:25;27.70;42.00
814;DHT22;389;48.710;9.392;2023-06-14T13:04:51;27.60;42.00
814;DHT22;389;48.710;9.392;2023-06-14T13:07:17;27.60;42.10
814;DHT22;389;48.710;9.392;2023-06-14T13:09:43;27.50;42.40
814;DHT22;389;48.710;9.392;2023-06-14T13:12:10;27.50;42.00
814;DHT22;389;48.710;9.392;2023-06-14T13:14:39;27.40;42.00
814;DHT22;389;48.710;9.392;2023-06-14T13:17:08;27.50;41.80
814;DHT22;389;48.710;9.392;2023-06-14T13:19:34;27.70;42.00
814;DHT22;389;48.710;9.392;2023-06-14T13:22:00;27.90;42.10
814;DHT22;389;48.710;9.392;2023-06-14T13:24:26;28.10;42.10
814;DHT22;389;48.710;9.392;2023-06-14T13:26:53;28.40;42.30
814;DHT22;389;48.710;9.392;2023-06-14T13:29:18;28.60;41.50
814;DHT22;389;48.710;9.392;2023-06-14T13:31:44;28.90;41.10
814;DHT22;389;48.710;9.392;2023-06-14T13:34:10;29.10;41.00
814;DHT22;389;48.710;9.392;2023-06-14T13:36:36;29.20;41.10
814;DHT22;389;48.710;9.392;2023-06-14T13:39:01;29.20;41.10
814;DHT22;389;48.710;9.392;2023-06-14T13:41:28;29.10;40.90
814;DHT22;389;48.710;9.392;2023-06-14T13:44:00;28.90;40.80
814;DHT22;389;48.710;9.392;2023-06-14T13:46:26;28.70;40.70
814;DHT22;389;48.710;9.392;2023-06-14T13:48:52;28.60;41.20
814;DHT22;389;48.710;9.392;2023-06-14T13:51:18;28.60;41.30
814;DHT22;389;48.710;9.392;2023-06-14T13:53:50;28.50;40.70
814;DHT22;389;48.710;9.392;2023-06-14T13:56:19;28.30;41.00
814;DHT22;389;48.710;9.392;2023-06-14T13:58:44;28.20;41.20
814;DHT22;389;48.710;9.392;2023-06-14T14:01:10;28.20;41.70
814;DHT22;389;48.710;9.392;2023-06-14T14:03:37;28.10;41.60
814;DHT22;389;48.710;9.392;2023-06-14T14:06:03;28.10;41.40
814;DHT22;389;48.710;9.392;2023-06-14T14:08:29;28.00;41.40
814;DHT22;389;48.710;9.392;2023-06-14T14:10:54;27.90;41.50
814;DHT22;389;48.710;9.392;2023-06-14T14:13:21;27.80;41.80
814;DHT22;389;48.710;9.392;2023-06-14T14:15:47;27.80;41.70
814;DHT22;389;48.710;9.392;2023-06-14T14:18:14;27.80;41.80
814;DHT22;389;48.710;9.392;2023-06-14T14:20:40;28.00;42.20
814;DHT22;389;48.710;9.392;2023-06-14T14:23:06;28.00;41.60
814;DHT22;389;48.710;9.392;2023-06-14T14:25:32;28.20;41.80
814;DHT22;389;48.710;9.392;2023-06-14T14:27:57;28.20;41.60
814;DHT22;389;48.710;9.392;2023-06-14T14:30:23;28.30;41.70
814;DHT22;389;48.710;9.392;2023-06-14T14:32:49;28.40;41.60
814;DHT22;389;48.710;9.392;2023-06-14T14:35:17;28.40;41.30
814;DHT22;389;48.710;9.392;2023-06-14T14:37:43;28.40;41.60
814;DHT22;389;48.710;9.392;2023-06-14T14:40:09;28.50;41.80
814;DHT22;389;48.710;9.392;2023-06-14T14:42:36;28.70;41.80
814;DHT22;389;48.710;9.392;2023-06-14T14:45:01;29.00;41.30
814;DHT22;389;48.710;9.392;2023-06-14T14:47:27;29.30;41.20
814;DHT22;389;48.710;9.392;2023-06-14T14:49:53;29.50;40.80
814;DHT22;389;48.710;9.392;2023-06-14T14:52:18;29.60;40.20
814;DHT22;389;48.710;9.392;2023-06-14T14:54:44;29.60;40.10
814;DHT22;389;48.710;9.392;2023-06-14T14:57:09;29.50;39.80
814;DHT22;389;48.710;9.392;2023-06-14T14:59:36;29.40;39.70
814;DHT22;389;48.710;9.392;2023-06-14T15:02:01;29.20;40.10
814;DHT22;389;48.710;9.392;2023-06-14T15:04:27;29.10;40.10
814;DHT22;389;48.710;9.392;2023-06-14T15:06:53;29.00;40.80
814;DHT22;389;48.710;9.392;2023-06-14T15:09:18;28.90;40.90
814;DHT22;389;48.710;9.392;2023-06-14T15:11:44;28.80;41.00
814;DHT22;389;48.710;9.392;2023-06-14T15:14:10;28.60;41.20
814;DHT22;389;48.710;9.392;2023-06-14T15:16:36;28.30;41.50
814;DHT22;389;48.710;9.392;2023-06-14T15:19:02;28.10;41.70
814;DHT22;389;48.710;9.392;2023-06-14T15:21:28;28.00;41.50
814;DHT22;389;48.710;9.392;2023-06-14T15:23:53;27.90;41.60
814;DHT22;389;48.710;9.392;2023-06-14T15:26:20;27.70;41.40
814;DHT22;389;48.710;9.392;2023-06-14T15:28:45;27.60;41.70
814;DHT22;389;48.710;9.392;2023-06-14T15:31:11;27.60;41.80
814;DHT22;389;48.710;9.392;2023-06-14T15:33:37;27.60;41.50
814;DHT22;389;48.710;9.392;2023-06-14T15:36:02;27.70;41.60
814;DHT22;389;48.710;9.392;2023-06-14T15:38:28;27.70;40.80
814;DHT22;389;48.710;9.392;2023-06-14T15:40:54;27.60;40.80
814;DHT22;389;48.710;9.392;2023-06-14T15:43:20;27.60;41.30
814;DHT22;389;48.710;9.392;2023-06-14T15:45:45;27.60;41.30
814;DHT22;389;48.710;9.392;2023-06-14T15:48:11;27.50;41.70
814;DHT22;389;48.710;9.392;2023-06-14T15:50:36;27.50;42.40
814;DHT22;389;48.710;9.392;2023-06-14T15:53:02;27.40;42.30
814;DHT22;389;48.710;9.392;2023-06-14T15:55:28;27.40;42.30
814;DHT22;389;48.710;9.392;2023-06-14T15:57:53;27.40;41.90
814;DHT22;389;48.710;9.392;2023-06-14T16:00:21;27.40;42.00
814;DHT22;389;48.710;9.392;2023-06-14T16:02:47;27.50;41.50
814;DHT22;389;48.710;9.392;2023-06-14T16:05:15;27.60;41.30
814;DHT22;389;48.710;9.392;2023-06-14T16:07:41;27.70;41.40
814;DHT22;389;48.710;9.392;2023-06-14T16:10:07;27.90;41.00
814;DHT22;389;48.710;9.392;2023-06-14T16:12:33;28.00;41.20
814;DHT22;389;48.710;9.392;2023-06-14T16:14:58;28.20;40.60
814;DHT22;389;48.710;9.392;2023-06-14T16:17:24;28.40;40.50
814;DHT22;389;48.710;9.392;2023-06-14T16:19:51;28.40;40.50
814;DHT22;389;48.710;9.392;2023-06-14T16:22:17;28.60;40.40
814;DHT22;389;48.710;9.392;2023-06-14T16:24:42;28.70;40.30
814;DHT22;389;48.710;9.392;2023-06-14T16:27:08;28.60;40.50
814;DHT22;389;48.710;9.392;2023-06-14T16:29:35;28.60;40.90
814;DHT22;389;48.710;9.392;2023-06-14T16:32:01;28.50;41.20
814;DHT22;389;48.710;9.392;2023-06-14T16:34:27;28.30;41.20
814;DHT22;389;48.710;9.392;2023-06-14T16:36:52;28.20;41.20
814;DHT22;389;48.710;9.392;2023-06-14T16:39:18;28.00;41.30
814;DHT22;389;48.710;9.392;2023-06-14T16:41:44;27.80;41.60
814;DHT22;389;48.710;9.392;2023-06-14T16:44:09;27.70;41.50
814;DHT22;389;48.710;9.392;2023-06-14T16:46:35;27.70;41.60
814;DHT22;389;48.710;9.392;2023-06-14T16:49:03;27.80;41.50
814;DHT22;389;48.710;9.392;2023-06-14T16:51:29;28.00;41.80